Grand Island, NE (68803)

2:11 AM CST on December 28, 2014 (GMT -0600)
10th and Custer | Change Station
CLOSE
Current Station
Personal Weather Station
Location: Grand Island, NE
Elevation: 1865 ft
Nearby Weather Stations

Elev 1865 ft 40.93 °N, 98.37 °W | Updated 0 second ago

Clear
Clear
13.0 °F
Feels Like 13 °F
N
0.0
Wind Variable Wind from WSW
Gusts 4.0 mph

Today
High -- | Low -- °F
--% Chance of Precip.
Yesterday
High -- | Low -- °F
Precip. -- in
7:57 AM 5:12 PM
Waxing Crescent, 45% visible
Pressure 30.13 in
Visibility 10.0 miles
Clouds Clear
Windchill 13 °F
Dew Point 9 °F
Humidity 84%
Rainfall 0.00 in
Snow Depth Not available.
UV 0 out of 12
Pollen .10 out of 12
Air Quality Not available.
Flu Activity Not available.
METAR KAUH 280755Z AUTO 25008KT 10SM CLR M10/M12 A3013 RMK AO2 T11001125

More Conditions Fewer Conditions

Pressure 30.13 in
Visibility 10.0 miles
Clouds Clear
Windchill 13 °F
Dew Point 9 °F
Humidity 84%
Rainfall 0.00 in
Snow Depth Not available.
UV 0 out of 12
Pollen .10 out of 12
Air Quality Not available.
Flu Activity Not available.
METAR KAUH 280755Z AUTO 25008KT 10SM CLR M10/M12 A3013 RMK AO2 T11001125

More Conditions Fewer Conditions

10-Day Weather Forecast

Almanac

Astronomy

Dec. 28, 2014 Rise Set
Actual Time
Civil Twilight
Nautical Twilight
Astronomical Twilight
Moon
Length of Visible Light
Length of Day
Tomorrow will be .
, % of the Moon is Illuminated

Today's Extremes

State Highs State Lows

Community

WunderPhotos

Upload Photos

1,781,210 photos uploaded!

WunderBlogs® & News

Nearby

Air Quality

  Air Quality AQ Index Pollutant
Not available.

Snow Depth

Station Depth Elevation

Earthquake Activity

City Distance Mag. Time & Date
Minimum magnitude displayed is 2.5.

Coastal Water Temperatures

Place Temperature

Nearby Weather Stations